Maggie Valley, NC

9:15 PM EDT on August 27, 2016 (GMT -0400)
VOPC | | Change Station

Elev 4012 ft 35.49 °N, 83.07 °W | Updated 9 minutes ago

Clear
Clear
70.7 °F
Feels Like 70 °F
N
0.0
Wind Variable Wind from ESE

Today
High -- | Low -- °F
--% Chance of Precip.
Yesterday
High -- | Low -- °F
Precip. -- in
Pressure 30.21 in
Visibility 3.0 miles
Clouds Clear
Heat Index 70 °F
Dew Point 65 °F
Humidity 83%
Rainfall 0.00 in
Snow Depth Not available.
7:01 AM 8:05 PM
Waning Crescent, 20% visible
METAR K1A5 280100Z AUTO 00000KT 3SM BR CLR 22/21 A3021 RMK AO2 T02200210
Pressure 30.21 in
Visibility 3.0 miles
Clouds Clear
Heat Index 70 °F
Dew Point 65 °F
Humidity 83%
Rainfall 0.00 in
Snow Depth Not available.
7:01 AM 8:05 PM
Waning Crescent, 20% visible
METAR K1A5 280100Z AUTO 00000KT 3SM BR CLR 22/21 A3021 RMK AO2 T02200210

10-Day Weather Forecast

Almanac

Astronomy

Aug. 27, 2016 Rise Set
Actual Time
Civil Twilight
Nautical Twilight
Astronomical Twilight
Moon
Length of Visible Light
Length of Day
Tomorrow will be .
, % of the Moon is Illuminated

Today's Extremes

State Highs State Lows

Community

WunderPhotos

Upload Photos

1,935,479 photos uploaded!

WunderBlog® & News

Nearby

Air Quality

  Air Quality AQ Index Pollutant
Not available.

Snow Depth

Station Depth Elevation

Earthquake Activity

City Distance Mag. Time & Date
Minimum magnitude displayed is 2.5.

Coastal Water Temperatures

Place Temperature

Stations

Nearby Weather Stations

Station Location Temp. Windchill Dew Point Humidity Wind Precip. Elev Updated Type
                   

Watches & Warnings

There are currently no watches in effect.